Time;durP1;ratioP1;P1;durP2;ratioP2;P2;SDS_P1;SDS_P2;PMS_P1;PMS_P2;Temp;Humidity;BMP_temperature;BMP_pressure;BME280_temperature;BME280_humidity;BME280_pressure;Samples;Min_cycle;Max_cycle;Signal;HPM_P1;HPM_P2
2022/04/24 00:00:39;;;;;;;12.60;8.90;;;14.60;70.50;;;;;;4878978;29;20077;-91
2022/04/24 00:03:06;;;;;;;11.23;8.65;;;14.60;70.50;;;;;;4878844;29;20506;-92
2022/04/24 00:05:33;;;;;;;11.15;9.40;;;14.60;70.40;;;;;;4875480;29;20057;-92
2022/04/24 00:08:00;;;;;;;12.88;8.65;;;14.50;70.20;;;;;;4878863;29;20049;-91
2022/04/24 00:10:27;;;;;;;10.75;9.32;;;14.50;70.10;;;;;;4878649;29;20053;-91
2022/04/24 00:12:54;;;;;;;11.60;9.35;;;14.50;70.00;;;;;;4878604;29;20447;-90
2022/04/24 00:15:21;;;;;;;12.90;9.55;;;14.50;69.80;;;;;;4878985;29;20113;-91
2022/04/24 00:17:48;;;;;;;11.25;9.30;;;14.50;69.70;;;;;;4878887;29;20060;-91
2022/04/24 00:20:15;;;;;;;12.98;9.73;;;14.50;69.60;;;;;;4878522;29;20061;-92
2022/04/24 00:22:42;;;;;;;11.57;10.20;;;14.40;69.40;;;;;;4878350;29;20052;-91
2022/04/24 00:25:09;;;;;;;13.82;9.60;;;14.40;69.30;;;;;;4878422;29;20096;-91
2022/04/24 00:27:36;;;;;;;11.18;9.35;;;14.40;69.20;;;;;;4878365;29;20041;-90
2022/04/24 00:30:04;;;;;;;13.05;10.07;;;14.40;69.10;;;;;;4878416;29;20073;-91
2022/04/24 00:32:31;;;;;;;11.57;9.57;;;14.40;69.00;;;;;;4878916;29;20049;-91
2022/04/24 00:34:58;;;;;;;13.43;10.10;;;14.40;68.90;;;;;;4878087;29;20446;-92
2022/04/24 00:37:25;;;;;;;11.77;9.82;;;14.40;68.80;;;;;;4878388;29;20053;-90
2022/04/24 00:39:51;;;;;;;12.65;10.35;;;14.40;68.70;;;;;;4878202;29;20507;-90
2022/04/24 00:42:18;;;;;;;12.27;10.60;;;14.40;68.60;;;;;;4878202;29;20052;-91
2022/04/24 00:44:46;;;;;;;12.48;10.40;;;14.40;68.50;;;;;;4878489;29;20053;-91
2022/04/24 00:47:17;;;;;;;12.55;11.25;;;14.40;68.40;;;;;;4878660;29;20457;-92
2022/04/24 00:49:45;;;;;;;12.65;10.85;;;14.30;68.30;;;;;;4877785;29;20053;-91
2022/04/24 00:52:13;;;;;;;12.98;10.65;;;14.30;68.20;;;;;;4878106;29;20045;-91
2022/04/24 00:54:40;;;;;;;13.10;10.43;;;14.20;68.10;;;;;;4878078;29;20053;-90
2022/04/24 00:57:09;;;;;;;14.88;10.90;;;14.20;68.10;;;;;;4878053;29;20052;-90
2022/04/24 00:59:37;;;;;;;12.98;10.48;;;14.20;68.00;;;;;;4878615;29;20056;-90
2022/04/24 01:02:11;;;;;;;14.65;11.05;;;14.20;68.00;;;;;;4877594;29;20061;-91
2022/04/24 01:04:39;;;;;;;13.73;11.68;;;14.20;67.90;;;;;;4877643;29;20101;-90
2022/04/24 01:07:07;;;;;;;13.38;11.15;;;14.10;67.90;;;;;;4877924;29;20048;-91
2022/04/24 01:09:35;;;;;;;15.82;11.60;;;14.10;67.90;;;;;;4878159;29;20048;-93
2022/04/24 01:12:03;;;;;;;13.85;12.05;;;14.10;67.80;;;;;;4878191;29;20048;-90
2022/04/24 01:14:31;;;;;;;13.82;11.90;;;14.10;67.80;;;;;;4878594;29;20056;-92
2022/04/24 01:17:00;;;;;;;16.38;12.85;;;14.10;67.80;;;;;;4877807;29;20049;-92
2022/04/24 01:19:27;;;;;;;14.35;11.93;;;14.00;67.70;;;;;;4877602;29;20208;-90
2022/04/24 01:21:55;;;;;;;15.95;12.57;;;14.00;67.70;;;;;;4877773;29;20064;-91
2022/04/24 01:24:24;;;;;;;15.90;12.93;;;14.00;67.70;;;;;;4877871;29;20113;-92
2022/04/24 01:26:52;;;;;;;17.58;12.75;;;13.90;67.70;;;;;;4878034;29;20071;-92
2022/04/24 01:29:20;;;;;;;15.70;13.07;;;13.90;67.70;;;;;;4878262;29;20053;-91
2022/04/24 01:31:50;;;;;;;17.05;12.30;;;13.90;67.70;;;;;;4877608;29;20507;-91
2022/04/24 01:34:18;;;;;;;17.20;12.70;;;13.80;67.80;;;;;;4877747;29;20057;-91
2022/04/24 01:36:46;;;;;;;15.18;13.02;;;13.80;67.80;;;;;;4877870;29;20045;-92
2022/04/24 01:39:16;;;;;;;17.42;13.63;;;13.70;67.80;;;;;;4877811;29;20057;-92
2022/04/24 01:41:44;;;;;;;19.33;13.77;;;13.70;67.90;;;;;;4877804;29;20049;-91
2022/04/24 01:44:11;;;;;;;15.80;12.52;;;13.60;67.90;;;;;;4877239;29;20061;-90
2022/04/24 01:46:38;;;;;;;16.10;13.52;;;13.60;67.90;;;;;;4877545;29;20053;-91
2022/04/24 01:49:05;;;;;;;16.58;13.93;;;13.60;68.00;;;;;;4877496;29;20506;-91
2022/04/24 01:51:32;;;;;;;18.02;15.20;;;13.50;68.10;;;;;;4877535;29;20049;-92
2022/04/24 01:53:59;;;;;;;15.65;13.52;;;13.50;68.10;;;;;;4877579;29;20104;-91
2022/04/24 01:56:26;;;;;;;19.27;14.15;;;13.40;68.20;;;;;;4878218;29;20053;-93
2022/04/24 01:58:53;;;;;;;15.82;13.48;;;13.40;68.20;;;;;;4877645;29;20049;-92
2022/04/24 02:01:19;;;;;;;18.10;15.00;;;13.30;68.20;;;;;;4877165;29;20057;-90
2022/04/24 02:03:47;;;;;;;16.35;14.27;;;13.30;68.30;;;;;;4877589;29;20053;-90
2022/04/24 02:06:14;;;;;;;17.92;14.55;;;13.20;68.30;;;;;;4877578;29;20136;-92
2022/04/24 02:08:41;;;;;;;16.88;14.70;;;13.20;68.40;;;;;;4877648;29;20113;-90
2022/04/24 02:11:08;;;;;;;17.88;14.65;;;13.10;68.40;;;;;;4877846;29;20082;-92
2022/04/24 02:13:36;;;;;;;20.45;15.30;;;13.10;68.50;;;;;;4878253;29;20060;-91
2022/04/24 02:16:03;;;;;;;18.98;15.13;;;13.00;68.60;;;;;;4880435;29;20582;-91
2022/04/24 02:18:30;;;;;;;19.33;15.60;;;13.00;68.60;;;;;;4880794;29;20045;-90
2022/04/24 02:20:57;;;;;;;18.38;15.75;;;12.90;68.70;;;;;;4864040;29;20112;-90
2022/04/24 02:23:24;;;;;;;19.20;15.88;;;12.90;68.80;;;;;;4880943;29;20053;-92
2022/04/24 02:25:51;;;;;;;18.85;16.02;;;12.90;68.80;;;;;;4880614;29;20053;-91
2022/04/24 02:28:18;;;;;;;19.65;16.40;;;12.80;68.90;;;;;;4880493;29;20438;-92
2022/04/24 02:30:44;;;;;;;19.85;15.93;;;12.80;68.90;;;;;;4863392;29;20109;-91
2022/04/24 02:33:12;;;;;;;18.67;16.23;;;12.80;69.00;;;;;;4880897;29;20092;-91
2022/04/24 02:35:38;;;;;;;18.50;16.10;;;12.80;69.00;;;;;;4880794;29;20053;-90
2022/04/24 02:38:05;;;;;;;20.10;16.75;;;12.70;69.10;;;;;;4880399;29;20459;-91
2022/04/24 02:40:34;;;;;;;19.48;16.35;;;12.70;69.20;;;;;;4880292;29;20522;-91
2022/04/24 02:43:01;;;;;;;20.02;16.55;;;12.60;69.20;;;;;;4879885;29;20045;-90
2022/04/24 02:45:28;;;;;;;19.58;16.33;;;12.60;69.30;;;;;;4879805;29;20080;-91
2022/04/24 02:47:55;;;;;;;18.55;15.65;;;12.60;69.40;;;;;;4880161;29;20057;-91
2022/04/24 02:50:23;;;;;;;19.60;17.48;;;12.50;69.40;;;;;;4881826;29;20538;-90
2022/04/24 02:52:52;;;;;;;21.85;19.02;;;12.50;69.50;;;;;;4879993;29;20056;-91
2022/04/24 02:55:20;;;;;;;21.92;18.25;;;12.50;69.50;;;;;;4879807;29;20089;-90
2022/04/24 02:57:48;;;;;;;20.83;18.38;;;12.40;69.60;;;;;;4880158;29;20049;-91
2022/04/24 03:00:21;;;;;;;22.30;19.10;;;12.40;69.60;;;;;;4879712;29;20506;-90
2022/04/24 03:02:49;;;;;;;22.52;18.35;;;12.40;69.70;;;;;;4880308;29;20053;-90
2022/04/24 03:05:18;;;;;;;21.65;18.48;;;12.40;69.70;;;;;;4880125;29;20057;-90
2022/04/24 03:07:46;;;;;;;22.60;19.45;;;12.40;69.80;;;;;;4879813;29;20581;-91
2022/04/24 03:10:14;;;;;;;21.83;19.45;;;12.40;69.80;;;;;;4879587;29;20467;-92
2022/04/24 03:12:42;;;;;;;20.48;18.25;;;12.30;69.90;;;;;;4879917;29;20049;-91
2022/04/24 03:15:10;;;;;;;21.42;18.23;;;12.30;69.90;;;;;;4879523;29;20045;-91
2022/04/24 03:17:38;;;;;;;23.00;18.67;;;12.20;69.90;;;;;;4880086;29;20049;-91
2022/04/24 03:20:06;;;;;;;23.48;19.05;;;12.20;69.90;;;;;;4879184;29;20061;-91
2022/04/24 03:22:33;;;;;;;21.25;18.42;;;12.20;70.00;;;;;;4879600;29;20049;-92
2022/04/24 03:25:06;;;;;;;21.88;19.08;;;12.20;70.00;;;;;;4879267;29;20048;-92
2022/04/24 03:27:33;;;;;;;24.13;19.05;;;12.20;70.00;;;;;;4879774;29;20053;-90
2022/04/24 03:30:00;;;;;;;22.88;19.27;;;12.10;70.00;;;;;;4879279;29;20567;-91
2022/04/24 03:32:33;;;;;;;21.17;18.17;;;12.10;70.00;;;;;;4879924;29;20100;-91
2022/04/24 03:35:03;;;;;;;25.43;20.13;;;12.00;70.10;;;;;;4879294;29;20060;-91
2022/04/24 03:37:30;;;;;;;22.52;19.33;;;12.00;70.10;;;;;;4879318;29;20064;-91
2022/04/24 03:39:57;;;;;;;24.73;20.20;;;12.00;70.10;;;;;;4879164;29;20502;-90
2022/04/24 03:42:27;;;;;;;21.80;19.00;;;11.90;70.20;;;;;;4878925;29;20052;-92
2022/04/24 03:44:57;;;;;;;22.75;20.00;;;12.00;70.20;;;;;;4879133;29;20053;-92
2022/04/24 03:47:24;;;;;;;23.08;20.38;;;11.90;70.30;;;;;;4879841;29;20052;-90
2022/04/24 03:49:51;;;;;;;22.23;19.83;;;11.90;70.40;;;;;;4879141;29;20061;-91
2022/04/24 03:52:18;;;;;;;22.52;20.13;;;11.90;70.40;;;;;;4878808;29;20056;-90
2022/04/24 03:54:45;;;;;;;22.50;19.98;;;11.90;70.40;;;;;;4879111;29;20108;-91
2022/04/24 03:57:13;;;;;;;23.10;20.52;;;11.90;70.40;;;;;;4878615;29;20124;-91
2022/04/24 03:59:40;;;;;;;22.25;19.50;;;11.90;70.50;;;;;;4879139;29;20502;-90
2022/04/24 04:02:07;;;;;;;22.65;20.27;;;11.90;70.50;;;;;;4879338;29;20053;-91
2022/04/24 04:04:35;;;;;;;23.00;20.20;;;11.90;70.60;;;;;;4878672;29;20061;-92
2022/04/24 04:07:02;;;;;;;23.55;20.48;;;11.90;70.60;;;;;;4878683;29;20447;-92
2022/04/24 04:09:30;;;;;;;24.13;20.83;;;11.90;70.60;;;;;;4878955;29;20049;-93
2022/04/24 04:11:57;;;;;;;23.77;21.08;;;11.80;70.70;;;;;;4878373;29;20060;-92
2022/04/24 04:14:24;;;;;;;24.15;21.55;;;11.80;70.70;;;;;;4879327;29;20068;-91
2022/04/24 04:16:51;;;;;;;23.10;20.58;;;11.90;70.80;;;;;;4878744;29;20105;-91
2022/04/24 04:19:18;;;;;;;23.65;21.05;;;11.80;70.80;;;;;;4861359;29;20053;-92
2022/04/24 04:21:45;;;;;;;23.00;19.30;;;11.80;70.80;;;;;;4878496;29;20108;-91
2022/04/24 04:24:12;;;;;;;23.63;20.73;;;11.80;70.90;;;;;;4878517;29;20053;-92
2022/04/24 04:26:40;;;;;;;24.60;21.55;;;11.80;70.90;;;;;;4878549;29;20053;-92
2022/04/24 04:29:07;;;;;;;24.45;20.65;;;11.80;70.90;;;;;;4878823;29;20113;-92
2022/04/24 04:31:34;;;;;;;25.50;21.25;;;11.80;71.00;;;;;;4878378;29;20065;-91
2022/04/24 04:34:01;;;;;;;24.92;22.00;;;11.80;71.00;;;;;;4878502;29;20049;-92
2022/04/24 04:36:29;;;;;;;25.27;22.08;;;11.80;71.00;;;;;;4877981;29;20520;-91
2022/04/24 04:38:56;;;;;;;27.00;21.05;;;11.80;71.10;;;;;;4878616;29;20053;-91
2022/04/24 04:41:23;;;;;;;24.13;21.33;;;11.70;71.00;;;;;;4878636;29;20109;-92
2022/04/24 04:43:50;;;;;;;25.40;22.58;;;11.80;71.10;;;;;;4878351;29;20109;-91
2022/04/24 04:46:17;;;;;;;25.25;22.55;;;11.70;71.10;;;;;;4875046;29;20438;-91
2022/04/24 04:48:44;;;;;;;25.17;22.42;;;11.70;71.10;;;;;;4875223;29;20045;-90
2022/04/24 04:51:11;;;;;;;26.77;23.23;;;11.70;71.10;;;;;;4876775;29;20053;-91
2022/04/24 04:53:38;;;;;;;25.15;22.58;;;11.70;71.20;;;;;;4878169;29;20052;-91
2022/04/24 04:56:05;;;;;;;25.83;22.90;;;11.70;71.20;;;;;;4876331;29;20065;-91
2022/04/24 04:58:32;;;;;;;26.55;23.13;;;11.70;71.20;;;;;;4874490;29;20060;-91
2022/04/24 05:01:00;;;;;;;25.88;22.92;;;11.70;71.30;;;;;;4874281;29;20510;-91
2022/04/24 05:03:27;;;;;;;25.63;22.67;;;11.70;71.30;;;;;;4874675;29;20475;-92
2022/04/24 05:05:54;;;;;;;25.95;22.85;;;11.70;71.30;;;;;;4875946;29;20053;-93
2022/04/24 05:08:21;;;;;;;26.27;23.02;;;11.70;71.30;;;;;;4878283;29;20491;-90
2022/04/24 05:10:48;;;;;;;25.38;22.52;;;11.70;71.30;;;;;;4874246;29;20125;-91
2022/04/24 05:13:15;;;;;;;26.35;22.00;;;11.70;71.30;;;;;;4874463;29;20061;-92
2022/04/24 05:15:42;;;;;;;26.33;22.92;;;11.60;71.30;;;;;;4874310;29;20511;-91
2022/04/24 05:18:09;;;;;;;25.17;22.48;;;11.70;71.30;;;;;;4875568;29;20102;-91
2022/04/24 05:20:36;;;;;;;24.10;21.60;;;11.70;71.40;;;;;;4877946;29;20144;-91
2022/04/24 05:23:07;;;;;;;26.63;21.58;;;11.70;71.40;;;;;;4875074;29;20077;-92
2022/04/24 05:25:35;;;;;;;24.42;21.65;;;11.70;71.40;;;;;;4873830;29;20415;-92
2022/04/24 05:28:03;;;;;;;24.10;21.58;;;11.70;71.40;;;;;;4875547;29;20045;-90
2022/04/24 05:30:30;;;;;;;24.70;22.13;;;11.70;71.40;;;;;;4874452;29;20060;-93
2022/04/24 05:32:58;;;;;;;25.50;22.80;;;11.60;71.40;;;;;;4875388;29;20057;-91
2022/04/24 05:35:25;;;;;;;25.55;21.23;;;11.70;71.40;;;;;;4877009;29;20464;-92
2022/04/24 05:37:52;;;;;;;23.67;21.27;;;11.70;71.40;;;;;;4874062;29;20053;-90
2022/04/24 05:40:19;;;;;;;24.25;21.05;;;11.70;71.40;;;;;;4874005;29;20053;-91
2022/04/24 05:42:54;;;;;;;22.85;20.42;;;11.70;71.40;;;;;;4874281;29;20048;-91
2022/04/24 05:45:24;;;;;;;23.10;20.60;;;11.70;71.50;;;;;;4874437;29;20063;-92
2022/04/24 05:47:54;;;;;;;23.20;20.73;;;11.60;71.50;;;;;;4876372;29;20519;-91
2022/04/24 05:50:23;;;;;;;22.05;19.65;;;11.70;71.50;;;;;;4880302;29;20049;-90
2022/04/24 05:52:54;;;;;;;21.75;19.45;;;11.70;71.50;;;;;;4877553;29;20460;-86
2022/04/24 05:55:22;;;;;;;23.08;20.27;;;11.70;71.50;;;;;;4877649;29;20460;-91
2022/04/24 05:57:51;;;;;;;23.08;20.50;;;11.70;71.50;;;;;;4877713;29;20045;-92
2022/04/24 06:00:19;;;;;;;21.25;18.33;;;11.70;71.60;;;;;;4877778;29;20053;-92
2022/04/24 06:02:51;;;;;;;23.23;19.38;;;11.70;71.60;;;;;;4879880;29;20080;-92
2022/04/24 06:05:18;;;;;;;20.83;18.63;;;11.70;71.60;;;;;;4879596;29;20561;-94
2022/04/24 06:07:45;;;;;;;21.63;19.30;;;11.70;71.60;;;;;;4878571;29;20109;-92
2022/04/24 06:10:12;;;;;;;19.25;17.23;;;11.80;71.60;;;;;;4877541;29;20056;-91
2022/04/24 06:12:51;;;;;;;20.50;18.02;;;11.80;71.60;;;;;;4877470;29;20053;-91
2022/04/24 06:15:21;;;;;;;19.92;17.83;;;11.80;71.60;;;;;;4864102;29;20461;-93
2022/04/24 06:17:52;;;;;;;20.20;18.05;;;11.80;71.60;;;;;;4880014;29;20048;-91
2022/04/24 06:20:21;;;;;;;21.73;17.33;;;11.80;71.70;;;;;;4879146;29;20061;-91
2022/04/24 06:22:54;;;;;;;20.58;17.13;;;11.90;71.70;;;;;;4876976;29;20048;-92
2022/04/24 06:25:27;;;;;;;21.52;17.95;;;11.90;71.70;;;;;;4877300;29;20064;-90
2022/04/24 06:27:54;;;;;;;20.15;17.33;;;11.90;71.70;;;;;;4877127;29;20109;-91
2022/04/24 06:30:24;;;;;;;18.33;16.42;;;11.90;71.70;;;;;;4877259;29;20053;-91
2022/04/24 06:32:51;;;;;;;20.60;17.65;;;11.90;71.70;;;;;;4862771;29;20049;-91
2022/04/24 06:35:18;;;;;;;20.67;18.00;;;11.90;71.70;;;;;;4878966;29;20061;-91
2022/04/24 06:37:47;;;;;;;20.50;17.15;;;12.00;71.70;;;;;;4876565;29;20609;-92
2022/04/24 06:40:16;;;;;;;19.85;16.67;;;12.00;71.70;;;;;;4877005;29;20588;-91
2022/04/24 06:42:53;;;;;;;19.10;17.10;;;12.00;71.70;;;;;;4878593;29;20045;-92
2022/04/24 06:45:30;;;;;;;20.10;15.75;;;12.10;71.60;;;;;;4876640;29;20519;-91
2022/04/24 06:48:01;;;;;;;18.13;15.38;;;12.10;71.50;;;;;;4862189;29;20055;-90
2022/04/24 06:50:29;;;;;;;19.25;15.73;;;12.10;71.40;;;;;;4879948;29;20109;-91
2022/04/24 06:53:01;;;;;;;17.85;14.70;;;12.20;71.40;;;;;;4876343;29;20105;-92
2022/04/24 06:55:29;;;;;;;16.50;14.80;;;12.20;71.30;;;;;;4876836;29;20060;-91
2022/04/24 06:57:56;;;;;;;16.40;14.70;;;12.20;71.20;;;;;;4877690;29;20112;-91
2022/04/24 07:00:25;;;;;;;19.92;14.30;;;12.30;71.20;;;;;;4876279;29;20054;-92
2022/04/24 07:02:52;;;;;;;16.85;14.68;;;12.30;71.20;;;;;;4878744;29;20105;-91
2022/04/24 07:05:22;;;;;;;16.33;14.30;;;12.40;71.10;;;;;;4878557;29;20141;-91
2022/04/24 07:07:49;;;;;;;15.02;13.50;;;12.40;71.10;;;;;;4876572;29;20049;-91
2022/04/24 07:10:16;;;;;;;15.02;13.32;;;12.40;71.00;;;;;;4876427;29;20045;-91
2022/04/24 07:12:51;;;;;;;16.33;13.23;;;12.50;71.00;;;;;;4876283;29;20066;-92
2022/04/24 07:15:20;;;;;;;16.13;14.18;;;12.50;71.00;;;;;;4876695;29;20469;-91
2022/04/24 07:17:49;;;;;;;14.93;12.85;;;12.50;70.90;;;;;;4878641;29;20048;-92
2022/04/24 07:20:18;;;;;;;14.80;13.25;;;12.60;70.80;;;;;;4877355;29;20061;-90
2022/04/24 07:22:48;;;;;;;14.32;12.82;;;12.70;70.70;;;;;;4862261;29;20525;-92
2022/04/24 07:25:17;;;;;;;14.30;12.80;;;12.80;70.60;;;;;;4876210;29;20108;-91
2022/04/24 07:27:44;;;;;;;17.73;14.00;;;12.80;70.60;;;;;;4875855;29;20117;-91
2022/04/24 07:30:16;;;;;;;13.70;12.02;;;12.90;70.40;;;;;;4876284;29;20506;-92
2022/04/24 07:32:48;;;;;;;16.23;13.45;;;12.90;70.30;;;;;;4878928;29;20113;-92
2022/04/24 07:35:18;;;;;;;13.63;12.07;;;12.90;70.20;;;;;;4879210;29;20053;-92
2022/04/24 07:37:45;;;;;;;13.65;11.90;;;13.00;70.00;;;;;;4875750;29;20129;-92
2022/04/24 07:40:14;;;;;;;13.43;11.32;;;13.00;69.80;;;;;;4861941;29;20053;-91
2022/04/24 07:42:56;;;;;;;15.48;11.90;;;13.10;69.70;;;;;;4877259;29;20061;-91
2022/04/24 07:45:30;;;;;;;14.63;11.93;;;13.20;69.50;;;;;;4876385;29;20050;-93
2022/04/24 07:47:58;;;;;;;12.52;11.20;;;13.20;69.40;;;;;;4877228;29;20045;-91
2022/04/24 07:50:27;;;;;;;13.25;10.75;;;13.30;69.20;;;;;;4878098;29;20060;-92
2022/04/24 07:52:55;;;;;;;11.57;10.25;;;13.30;69.10;;;;;;4875806;29;20127;-92
2022/04/24 07:55:24;;;;;;;12.90;10.25;;;13.40;69.00;;;;;;4875836;29;20056;-92
2022/04/24 07:57:53;;;;;;;13.15;10.32;;;13.40;68.90;;;;;;4875821;29;20506;-93
2022/04/24 08:00:22;;;;;;;12.07;10.77;;;13.50;68.70;;;;;;4875701;29;20061;-92
2022/04/24 08:03:06;;;;;;;14.13;9.75;;;13.50;68.60;;;;;;4877700;29;20426;-92
2022/04/24 08:05:38;;;;;;;;;;;13.60;68.40;;;;;;4875477;29;20061;-92
2022/04/24 08:08:08;;;;;;;12.90;10.30;;;13.60;68.30;;;;;;4877586;29;19924;-92
2022/04/24 08:10:40;;;;;;;11.90;9.30;;;13.70;68.20;;;;;;4876156;29;20109;-93
2022/04/24 08:13:08;;;;;;;12.80;9.27;;;13.80;68.10;;;;;;4874950;29;20105;-92
2022/04/24 08:15:41;;;;;;;10.90;9.48;;;13.80;68.00;;;;;;4875613;29;20056;-92
2022/04/24 08:18:11;;;;;;;13.82;9.90;;;13.90;67.90;;;;;;4875238;29;20068;-92
2022/04/24 08:20:40;;;;;;;11.80;9.43;;;13.90;67.80;;;;;;4875097;29;20053;-92
2022/04/24 08:23:08;;;;;;;11.35;9.68;;;14.00;67.80;;;;;;4863973;29;20057;-93
2022/04/24 08:25:35;;;;;;;9.90;8.60;;;14.00;67.70;;;;;;4871397;29;20053;-94
2022/04/24 08:28:07;;;;;;;10.50;9.10;;;14.10;67.60;;;;;;4875176;29;20049;-93
2022/04/24 08:30:42;;;;;;;11.10;9.57;;;14.10;67.50;;;;;;4876624;29;20060;-92
2022/04/24 08:33:10;;;;;;;9.98;8.30;;;14.20;67.40;;;;;;4860605;29;20150;-93
2022/04/24 08:35:37;;;;;;;9.40;8.40;;;14.30;67.30;;;;;;4879325;29;20045;-93
2022/04/24 08:38:05;;;;;;;9.27;8.27;;;14.40;67.20;;;;;;4877103;29;20063;-93
2022/04/24 08:40:32;;;;;;;12.00;9.45;;;14.40;67.00;;;;;;4875465;29;20109;-92
2022/04/24 08:43:00;;;;;;;11.35;10.00;;;14.50;66.90;;;;;;4876355;29;20073;-93
2022/04/24 08:45:30;;;;;;;10.52;8.35;;;14.60;66.70;;;;;;4875295;29;20478;-92
2022/04/24 08:47:57;;;;;;;9.48;7.43;;;14.60;66.60;;;;;;4876147;29;20053;-93
2022/04/24 08:50:29;;;;;;;11.75;9.10;;;14.70;66.40;;;;;;4877713;29;20060;-94
2022/04/24 08:52:59;;;;;;;10.02;8.88;;;14.90;66.20;;;;;;4875061;29;20448;-92
2022/04/24 08:55:28;;;;;;;10.63;8.40;;;14.90;66.10;;;;;;4875037;29;20052;-92
2022/04/24 08:57:55;;;;;;;10.18;8.15;;;15.10;65.90;;;;;;4874755;29;20052;-93
2022/04/24 09:00:22;;;;;;;9.52;8.32;;;15.20;65.70;;;;;;4876424;29;20061;-93
2022/04/24 09:02:51;;;;;;;9.05;7.82;;;15.30;65.50;;;;;;4877307;29;20077;-92
2022/04/24 09:05:18;;;;;;;10.25;8.52;;;15.40;65.30;;;;;;4876285;29;20395;-92
2022/04/24 09:07:46;;;;;;;9.70;7.82;;;15.50;65.10;;;;;;4871318;29;20096;-92
2022/04/24 09:10:53;;;;;;;11.35;7.95;;;15.60;64.90;;;;;;4876579;29;20045;-93
2022/04/24 09:14:14;;;;;;;9.60;8.10;;;15.70;64.60;;;;;;4875782;29;20086;-93
2022/04/24 09:16:39;;;;;;;10.15;7.78;;;15.80;64.30;;;;;;4870319;29;20049;-93
2022/04/24 09:19:24;;;;;;;9.75;7.63;;;16.00;63.90;;;;;;4875584;29;20084;-92
2022/04/24 09:21:53;;;;;;;8.65;7.57;;;16.10;63.60;;;;;;4854304;29;20049;-93
2022/04/24 09:24:20;;;;;;;9.85;7.80;;;16.20;63.40;;;;;;4880216;29;20122;-92
2022/04/24 09:26:52;;;;;;;8.77;7.82;;;16.20;63.10;;;;;;4880905;29;20057;-93
2022/04/24 09:29:21;;;;;;;8.35;6.95;;;16.30;62.90;;;;;;4876499;29;20060;-95
2022/04/24 09:31:50;;;;;;;9.18;7.25;;;16.40;62.60;;;;;;4879037;29;20060;-93
2022/04/24 09:34:20;;;;;;;10.30;8.52;;;16.40;62.50;;;;;;4874286;29;20053;-91
2022/04/24 09:36:59;;;;;;;8.75;7.55;;;16.50;62.30;;;;;;4881841;29;20053;-92
2022/04/24 09:39:33;;;;;;;10.65;7.43;;;16.60;62.10;;;;;;4878196;29;20117;-93
2022/04/24 09:42:07;;;;;;;10.43;6.85;;;16.70;61.80;;;;;;4878486;29;20069;-92
2022/04/24 09:44:41;;;;;;;8.38;6.90;;;16.70;61.60;;;;;;4878171;29;20056;-93
2022/04/24 09:47:28;;;;;;;8.20;6.88;;;16.80;61.40;;;;;;4881271;29;20483;-90
2022/04/24 09:49:59;;;;;;;10.15;6.97;;;16.90;61.30;;;;;;4878099;29;20057;-92
2022/04/24 09:52:31;;;;;;;9.20;7.28;;;16.90;61.10;;;;;;4877870;29;20060;-93
2022/04/24 09:54:59;;;;;;;9.85;7.35;;;17.00;60.90;;;;;;4880267;29;20109;-93
2022/04/24 09:57:28;;;;;;;10.18;8.73;;;17.10;60.70;;;;;;4879202;29;20049;-91
2022/04/24 09:59:54;;;;;;;9.15;7.80;;;17.20;60.50;;;;;;4879436;29;20098;-92
2022/04/24 10:02:22;;;;;;;9.20;6.85;;;17.30;60.40;;;;;;4880070;29;20122;-93
2022/04/24 10:04:49;;;;;;;8.98;7.05;;;17.40;60.10;;;;;;4874044;29;20053;-92
2022/04/24 10:07:19;;;;;;;9.05;6.93;;;17.40;59.90;;;;;;4877329;29;20057;-91
2022/04/24 10:09:47;;;;;;;10.77;6.90;;;17.50;59.80;;;;;;4878923;29;20053;-91
2022/04/24 10:12:19;;;;;;;7.70;6.57;;;17.50;59.60;;;;;;4877840;29;20068;-93
2022/04/24 10:14:57;;;;;;;11.57;7.72;;;17.60;59.50;;;;;;4879566;29;20125;-92
2022/04/24 10:17:43;;;;;;;8.77;7.00;;;17.70;59.30;;;;;;4880122;29;20053;-94
2022/04/24 10:20:34;;;;;;;10.55;8.15;;;17.80;59.20;;;;;;4873740;29;20102;-94
2022/04/24 10:23:01;;;;;;;9.55;7.80;;;17.90;59.00;;;;;;4878388;29;20106;-93
2022/04/24 10:25:31;;;;;;;9.35;7.72;;;17.90;58.80;;;;;;4877140;29;20053;-94
2022/04/24 10:28:19;;;;;;;9.13;6.82;;;17.90;58.70;;;;;;4876610;29;20475;-92
2022/04/24 10:31:00;;;;;;;8.55;7.43;;;18.00;58.50;;;;;;4879064;29;20478;-92
2022/04/24 10:33:30;;;;;;;10.80;7.10;;;18.10;58.30;;;;;;4874951;29;20065;-93
2022/04/24 10:36:18;;;;;;;10.38;6.82;;;18.10;58.10;;;;;;4876723;29;20057;-92
2022/04/24 10:38:49;;;;;;;11.85;8.43;;;18.20;58.00;;;;;;4862046;29;20053;-91
2022/04/24 10:41:36;;;;;;;10.13;6.82;;;18.30;57.80;;;;;;4881387;29;20140;-92
2022/04/24 10:44:17;;;;;;;9.82;7.22;;;18.30;57.60;;;;;;4876935;29;20064;-93
2022/04/24 10:46:48;;;;;;;8.02;6.63;;;18.40;57.50;;;;;;4878282;29;20109;-92
2022/04/24 10:49:18;;;;;;;9.80;6.80;;;18.40;57.30;;;;;;4859614;29;20041;-90
2022/04/24 10:52:00;;;;;;;8.85;7.00;;;18.50;57.30;;;;;;4878242;29;20049;-91
2022/04/24 10:54:36;;;;;;;8.77;7.85;;;18.50;57.10;;;;;;4877884;29;20053;-92
2022/04/24 10:57:21;;;;;;;8.85;7.28;;;18.60;57.00;;;;;;4877420;29;20053;-91
2022/04/24 10:59:51;;;;;;;;;;;18.70;56.90;;;;;;4876885;29;20082;-92
2022/04/24 11:02:33;;;;;;;10.00;8.85;;;18.70;56.80;;;;;;4878335;29;19980;-91
2022/04/24 11:05:10;;;;;;;10.40;7.57;;;18.80;56.50;;;;;;4876400;29;20530;-92
2022/04/24 11:07:37;;;;;;;8.38;7.47;;;18.80;56.40;;;;;;4876325;29;20120;-89
2022/04/24 11:10:11;;;;;;;9.52;7.05;;;18.90;56.30;;;;;;4876217;29;20045;-91
2022/04/24 11:12:39;;;;;;;;;;;18.90;56.20;;;;;;4876258;29;20067;-92
2022/04/24 11:15:12;;;;;;;9.07;6.70;;;19.00;56.00;;;;;;4876576;29;20309;-92
2022/04/24 11:17:39;;;;;;;11.50;8.30;;;19.00;55.80;;;;;;4876155;29;20049;-90
2022/04/24 11:20:14;;;;;;;8.63;7.30;;;19.10;55.70;;;;;;4875930;29;20080;-91
2022/04/24 11:22:52;;;;;;;9.13;7.25;;;19.20;55.60;;;;;;4878534;29;20063;-92
2022/04/24 11:25:22;;;;;;;8.60;6.38;;;19.20;55.50;;;;;;4876222;29;20120;-93
2022/04/24 11:27:55;;;;;;;10.18;7.35;;;19.30;55.40;;;;;;4875454;29;20049;-93
2022/04/24 11:30:31;;;;;;;9.23;7.60;;;19.40;55.30;;;;;;4876441;29;20125;-92
2022/04/24 11:33:04;;;;;;;10.95;6.88;;;19.40;55.10;;;;;;4861038;29;20775;-92
2022/04/24 11:35:36;;;;;;;9.48;6.72;;;19.50;55.00;;;;;;4879370;29;20056;-92
2022/04/24 11:38:05;;;;;;;7.60;6.47;;;19.50;54.90;;;;;;4877815;29;20109;-92
2022/04/24 11:40:33;;;;;;;7.75;5.93;;;19.60;54.70;;;;;;4875665;29;20049;-94
2022/04/24 11:43:18;;;;;;;8.85;6.35;;;19.70;54.60;;;;;;4876785;29;20049;-93
2022/04/24 11:51:32;;;;;;;8.30;6.05;;;19.90;53.90;;;;;;4863515;29;20061;-91
2022/04/24 11:54:11;;;;;;;9.55;6.07;;;20.00;53.70;;;;;;4860977;29;20045;-92
2022/04/24 11:56:39;;;;;;;8.75;5.82;;;20.10;53.50;;;;;;4875606;29;20049;-91
2022/04/24 11:59:19;;;;;;;8.93;6.40;;;20.20;53.30;;;;;;4877580;29;20056;-91
2022/04/24 12:01:57;;;;;;;8.48;6.45;;;20.30;52.90;;;;;;4877683;29;20460;-93
2022/04/24 12:04:31;;;;;;;7.63;5.88;;;20.30;52.20;;;;;;4875324;29;20061;-91
2022/04/24 12:07:06;;;;;;;9.55;5.22;;;20.40;51.60;;;;;;4875237;29;20438;-91
2022/04/24 12:09:34;;;;;;;7.38;5.50;;;20.40;51.40;;;;;;4876171;29;20045;-91
2022/04/24 12:12:08;;;;;;;13.57;6.63;;;20.40;51.20;;;;;;4876285;29;20045;-92
2022/04/24 12:14:36;;;;;;;9.30;6.63;;;20.40;50.90;;;;;;4875184;29;20045;-92
2022/04/24 12:17:11;;;;;;;7.53;5.90;;;20.50;50.70;;;;;;4875909;29;20053;-92
2022/04/24 12:19:52;;;;;;;10.48;6.90;;;20.50;50.50;;;;;;4875194;29;20057;-93
2022/04/24 12:22:30;;;;;;;8.60;6.80;;;20.50;50.30;;;;;;4875737;29;20104;-91
2022/04/24 12:25:09;;;;;;;10.23;6.72;;;20.50;49.70;;;;;;4864888;29;20109;-93
2022/04/24 12:27:36;;;;;;;8.15;5.50;;;20.60;49.30;;;;;;4875374;29;20049;-92
2022/04/24 12:30:06;;;;;;;8.90;5.07;;;20.60;49.20;;;;;;4870533;29;20049;-93
2022/04/24 12:32:35;;;;;;;7.57;5.28;;;20.60;49.10;;;;;;4878837;29;20060;-93
2022/04/24 12:35:02;;;;;;;9.75;5.40;;;20.60;49.00;;;;;;4878275;29;20407;-93
2022/04/24 12:37:31;;;;;;;8.20;6.43;;;20.60;48.90;;;;;;4861346;29;20049;-92
2022/04/24 12:39:59;;;;;;;10.05;6.22;;;20.70;48.80;;;;;;4875977;29;20052;-94
2022/04/24 12:42:26;;;;;;;9.73;6.13;;;20.70;48.50;;;;;;4874995;29;20113;-94
2022/04/24 12:44:54;;;;;;;8.90;5.85;;;20.70;48.30;;;;;;4877525;29;20146;-92
2022/04/24 12:47:22;;;;;;;7.47;4.75;;;20.80;48.10;;;;;;4877500;29;20057;-95
2022/04/24 12:49:49;;;;;;;7.15;5.38;;;20.80;48.00;;;;;;4875295;29;20112;-94
2022/04/24 12:52:21;;;;;;;7.13;4.45;;;20.80;47.90;;;;;;4876505;29;20064;-93